ADDS METAR Data INFO
IDs: Format: Raw Decoded Include TAF

Data at: 1043 UTC 19 Oct 2017

METAR for:KVDF (Tampa/Executive Arpt, FL, US)
Text:KVDF 191035Z AUTO 01003KT 7SM CLR 20/20 A3009 RMK AO2
Temperature: 20.0°C ( 68°F)
Dewpoint: 20.0°C ( 68°F) [RH = 100%]
Pressure (altimeter):30.09 inches Hg (1019.0 mb)
Winds:from the N (10 degrees) at 3 MPH (3 knots; 1.5 m/s)
Visibility: 7 sm ( 11 km)
Ceiling:at least 12,000 feet AGL
Clouds:sky clear below 12,000 feet AGL
QC Flag:automated observation with no human augmentation